Farmington, WI

3:33 AM CDT on October 01, 2014 (GMT -0500)
Woodridge Subdivision/KC9WA | Change Station
CLOSE
Current Station
Personal Weather Station
Location: Waupaca, WI
Elevation: 951 ft
Nearby Weather Stations

Elev 951 ft 44.37 °N, 89.12 °W | Updated 7 days ago

Fog
Fog
45 °F
Feels Like 45 °F
N
5
Wind Variable Wind from East
Gusts 6 mph

Today
High -- | Low -- °F
--% Chance of Precip.
Yesterday
High -- | Low -- °F
Precip. -- in
6:54 AM 6:37 PM
Waxing Crescent, 45% visible
Pressure 30.02 in
Visibility 4.0 miles
Clouds Overcast 1400 ft
Dew Point 45 °F
Humidity 100%
Rainfall 40.81 in
Snow Depth Not available.
UV 0 out of 12
Pollen 1.60 out of 12
Air Quality Not available.
Flu Activity Not available.
METAR KPCZ 010815Z AUTO 07003KT 4SM BR OVC014 10/09 A3002 RMK AO2 T00950087

More Conditions Fewer Conditions

Pressure 30.02 in
Visibility 4.0 miles
Clouds Overcast 1400 ft
Dew Point 45 °F
Humidity 100%
Rainfall 40.81 in
Snow Depth Not available.
UV 0 out of 12
Pollen 1.60 out of 12
Air Quality Not available.
Flu Activity Not available.
METAR KPCZ 010815Z AUTO 07003KT 4SM BR OVC014 10/09 A3002 RMK AO2 T00950087

More Conditions Fewer Conditions

10-Day Weather Forecast

Almanac

Astronomy

Oct. 01, 2014 Rise Set
Actual Time 6:54 AM CDT 6:37 PM CDT
Civil Twilight 6:25 AM CDT 7:06 PM CDT
Nautical Twilight 5:51 AM CDT 7:39 PM CDT
Astronomical Twilight 5:17 AM CDT 8:13 PM CDT
Moon 2:04 PM CDT 11:59 PM CDT
Length of Visible Light 12h 40m
Length of Day
11h 42m
Tomorrow will be 3m 2s shorter.
Waxing Crescent, 45% of the Moon is Illuminated
Today
Waxing Crescent
Oct 1
First Quarter
Oct 8
Full
Oct 15
Last Quarter
Oct 23
New

Today's Extremes

State Highs State Lows

Community

WunderPhotos

Upload Photos

1,757,902 photos uploaded!

Nearby

Snow Depth

Station Depth Elevation
No new snow has been reported.

Earthquake Activity

City Distance Mag. Time & Date
No recent earthquake activity has been reported nearby.
Minimum magnitude displayed is 2.5.

Coastal Water Temperatures

Place Temperature
No Stations Reporting

Nearby Weather Stations